sensor_id;sensor_type;location;lat;lon;timestamp;P1;durP1;ratioP1;P2;durP2;ratioP2
18048;SDS011;9149;47.002;8.604;2022-09-24T00:00:47;3.65;;;2.28;;
18048;SDS011;9149;47.002;8.604;2022-09-24T00:03:20;3.90;;;2.55;;
18048;SDS011;9149;47.002;8.604;2022-09-24T00:05:49;3.13;;;2.30;;
18048;SDS011;9149;47.002;8.604;2022-09-24T00:08:18;6.55;;;2.47;;
18048;SDS011;9149;47.002;8.604;2022-09-24T00:10:46;2.90;;;1.88;;
18048;SDS011;9149;47.002;8.604;2022-09-24T00:13:15;3.60;;;2.40;;
18048;SDS011;9149;47.002;8.604;2022-09-24T00:15:44;3.55;;;2.30;;
18048;SDS011;9149;47.002;8.604;2022-09-24T00:18:13;7.38;;;2.53;;
18048;SDS011;9149;47.002;8.604;2022-09-24T00:20:42;3.38;;;2.40;;
18048;SDS011;9149;47.002;8.604;2022-09-24T00:23:10;3.30;;;2.28;;
18048;SDS011;9149;47.002;8.604;2022-09-24T00:25:39;4.45;;;2.80;;
18048;SDS011;9149;47.002;8.604;2022-09-24T00:28:17;5.05;;;2.17;;
18048;SDS011;9149;47.002;8.604;2022-09-24T00:30:45;4.18;;;2.63;;
18048;SDS011;9149;47.002;8.604;2022-09-24T00:33:14;3.35;;;2.33;;
18048;SDS011;9149;47.002;8.604;2022-09-24T00:35:43;5.32;;;2.20;;
18048;SDS011;9149;47.002;8.604;2022-09-24T00:38:10;7.35;;;2.63;;
18048;SDS011;9149;47.002;8.604;2022-09-24T00:40:38;3.22;;;2.30;;
18048;SDS011;9149;47.002;8.604;2022-09-24T00:45:49;4.47;;;2.67;;
18048;SDS011;9149;47.002;8.604;2022-09-24T00:48:17;2.95;;;2.40;;
18048;SDS011;9149;47.002;8.604;2022-09-24T00:50:48;3.30;;;2.33;;
18048;SDS011;9149;47.002;8.604;2022-09-24T00:53:16;3.40;;;2.20;;
18048;SDS011;9149;47.002;8.604;2022-09-24T00:55:45;5.38;;;2.60;;
18048;SDS011;9149;47.002;8.604;2022-09-24T00:58:13;2.97;;;2.00;;
18048;SDS011;9149;47.002;8.604;2022-09-24T01:00:41;4.10;;;2.40;;
18048;SDS011;9149;47.002;8.604;2022-09-24T01:03:11;3.88;;;2.30;;
18048;SDS011;9149;47.002;8.604;2022-09-24T01:05:40;3.28;;;2.15;;
18048;SDS011;9149;47.002;8.604;2022-09-24T01:08:10;6.70;;;2.05;;
18048;SDS011;9149;47.002;8.604;2022-09-24T01:10:43;3.17;;;2.17;;
18048;SDS011;9149;47.002;8.604;2022-09-24T01:13:16;3.05;;;2.20;;
18048;SDS011;9149;47.002;8.604;2022-09-24T01:15:48;3.42;;;2.50;;
18048;SDS011;9149;47.002;8.604;2022-09-24T01:18:20;3.88;;;2.40;;
18048;SDS011;9149;47.002;8.604;2022-09-24T01:20:58;3.40;;;2.17;;
18048;SDS011;9149;47.002;8.604;2022-09-24T01:23:38;3.90;;;2.53;;
18048;SDS011;9149;47.002;8.604;2022-09-24T01:26:18;4.43;;;2.35;;
18048;SDS011;9149;47.002;8.604;2022-09-24T01:28:55;3.50;;;2.10;;
18048;SDS011;9149;47.002;8.604;2022-09-24T01:31:31;3.38;;;2.13;;
18048;SDS011;9149;47.002;8.604;2022-09-24T01:34:00;6.53;;;2.65;;
18048;SDS011;9149;47.002;8.604;2022-09-24T01:36:31;5.63;;;2.22;;
18048;SDS011;9149;47.002;8.604;2022-09-24T01:39:17;4.70;;;2.22;;
18048;SDS011;9149;47.002;8.604;2022-09-24T01:41:45;3.50;;;2.38;;
18048;SDS011;9149;47.002;8.604;2022-09-24T01:44:13;3.90;;;2.40;;
18048;SDS011;9149;47.002;8.604;2022-09-24T01:46:45;3.10;;;2.05;;
18048;SDS011;9149;47.002;8.604;2022-09-24T01:49:12;3.17;;;2.25;;
18048;SDS011;9149;47.002;8.604;2022-09-24T01:51:41;3.53;;;1.98;;
18048;SDS011;9149;47.002;8.604;2022-09-24T01:54:13;2.55;;;1.75;;
18048;SDS011;9149;47.002;8.604;2022-09-24T01:56:44;3.97;;;2.15;;
18048;SDS011;9149;47.002;8.604;2022-09-24T01:59:13;5.72;;;2.30;;
18048;SDS011;9149;47.002;8.604;2022-09-24T02:01:44;3.67;;;2.17;;
18048;SDS011;9149;47.002;8.604;2022-09-24T02:04:15;3.15;;;2.22;;
18048;SDS011;9149;47.002;8.604;2022-09-24T02:06:45;4.53;;;2.50;;
18048;SDS011;9149;47.002;8.604;2022-09-24T02:11:56;3.05;;;2.28;;
18048;SDS011;9149;47.002;8.604;2022-09-24T02:14:26;5.43;;;2.58;;
18048;SDS011;9149;47.002;8.604;2022-09-24T02:16:55;5.00;;;2.40;;
18048;SDS011;9149;47.002;8.604;2022-09-24T02:19:26;4.72;;;2.70;;
18048;SDS011;9149;47.002;8.604;2022-09-24T02:21:55;3.55;;;2.40;;
18048;SDS011;9149;47.002;8.604;2022-09-24T02:24:25;3.33;;;2.08;;
18048;SDS011;9149;47.002;8.604;2022-09-24T02:26:56;3.53;;;2.10;;
18048;SDS011;9149;47.002;8.604;2022-09-24T02:29:25;3.53;;;2.10;;
18048;SDS011;9149;47.002;8.604;2022-09-24T02:31:53;2.88;;;2.28;;
18048;SDS011;9149;47.002;8.604;2022-09-24T02:34:24;4.75;;;2.17;;
18048;SDS011;9149;47.002;8.604;2022-09-24T02:36:56;2.80;;;1.88;;
18048;SDS011;9149;47.002;8.604;2022-09-24T02:39:25;6.70;;;2.80;;
18048;SDS011;9149;47.002;8.604;2022-09-24T02:41:53;9.07;;;2.25;;
18048;SDS011;9149;47.002;8.604;2022-09-24T02:44:21;2.92;;;2.05;;
18048;SDS011;9149;47.002;8.604;2022-09-24T02:46:49;2.78;;;2.03;;
18048;SDS011;9149;47.002;8.604;2022-09-24T02:49:17;3.35;;;2.30;;
18048;SDS011;9149;47.002;8.604;2022-09-24T02:51:45;2.03;;;1.80;;
18048;SDS011;9149;47.002;8.604;2022-09-24T02:54:14;2.35;;;1.92;;
18048;SDS011;9149;47.002;8.604;2022-09-24T02:56:41;3.15;;;2.30;;
18048;SDS011;9149;47.002;8.604;2022-09-24T02:59:09;2.85;;;2.08;;
18048;SDS011;9149;47.002;8.604;2022-09-24T03:01:37;2.80;;;2.22;;
18048;SDS011;9149;47.002;8.604;2022-09-24T03:04:05;3.42;;;2.20;;
18048;SDS011;9149;47.002;8.604;2022-09-24T03:06:33;10.20;;;2.10;;
18048;SDS011;9149;47.002;8.604;2022-09-24T03:09:02;2.40;;;1.70;;
18048;SDS011;9149;47.002;8.604;2022-09-24T03:11:31;3.17;;;2.13;;
18048;SDS011;9149;47.002;8.604;2022-09-24T03:13:59;2.88;;;1.95;;
18048;SDS011;9149;47.002;8.604;2022-09-24T03:16:27;3.55;;;1.70;;
18048;SDS011;9149;47.002;8.604;2022-09-24T03:18:55;2.67;;;1.80;;
18048;SDS011;9149;47.002;8.604;2022-09-24T03:21:22;4.00;;;2.13;;
18048;SDS011;9149;47.002;8.604;2022-09-24T03:23:50;2.30;;;1.83;;
18048;SDS011;9149;47.002;8.604;2022-09-24T03:26:18;4.28;;;1.90;;
18048;SDS011;9149;47.002;8.604;2022-09-24T03:28:47;3.60;;;2.03;;
18048;SDS011;9149;47.002;8.604;2022-09-24T03:31:15;2.50;;;2.15;;
18048;SDS011;9149;47.002;8.604;2022-09-24T03:33:42;3.50;;;2.00;;
18048;SDS011;9149;47.002;8.604;2022-09-24T03:36:11;4.45;;;2.20;;
18048;SDS011;9149;47.002;8.604;2022-09-24T03:38:41;3.22;;;2.00;;
18048;SDS011;9149;47.002;8.604;2022-09-24T03:41:09;2.88;;;2.00;;
18048;SDS011;9149;47.002;8.604;2022-09-24T03:43:37;3.58;;;2.00;;
18048;SDS011;9149;47.002;8.604;2022-09-24T03:46:06;3.13;;;2.30;;
18048;SDS011;9149;47.002;8.604;2022-09-24T03:48:35;3.70;;;2.00;;
18048;SDS011;9149;47.002;8.604;2022-09-24T03:51:03;2.78;;;2.00;;
18048;SDS011;9149;47.002;8.604;2022-09-24T03:53:31;3.97;;;2.20;;
18048;SDS011;9149;47.002;8.604;2022-09-24T03:55:59;2.45;;;1.92;;
18048;SDS011;9149;47.002;8.604;2022-09-24T03:58:28;3.00;;;2.10;;
18048;SDS011;9149;47.002;8.604;2022-09-24T04:00:57;2.80;;;2.08;;
18048;SDS011;9149;47.002;8.604;2022-09-24T04:03:30;4.13;;;2.40;;
18048;SDS011;9149;47.002;8.604;2022-09-24T04:05:57;3.25;;;2.17;;
18048;SDS011;9149;47.002;8.604;2022-09-24T04:08:25;5.15;;;2.60;;
18048;SDS011;9149;47.002;8.604;2022-09-24T04:10:53;4.15;;;2.60;;
18048;SDS011;9149;47.002;8.604;2022-09-24T04:13:21;3.22;;;2.22;;
18048;SDS011;9149;47.002;8.604;2022-09-24T04:15:49;4.18;;;2.40;;
18048;SDS011;9149;47.002;8.604;2022-09-24T04:18:17;3.55;;;2.60;;
18048;SDS011;9149;47.002;8.604;2022-09-24T04:20:46;5.00;;;2.70;;
18048;SDS011;9149;47.002;8.604;2022-09-24T04:23:14;5.13;;;2.42;;
18048;SDS011;9149;47.002;8.604;2022-09-24T04:25:42;4.30;;;2.60;;
18048;SDS011;9149;47.002;8.604;2022-09-24T04:28:10;5.82;;;2.58;;
18048;SDS011;9149;47.002;8.604;2022-09-24T04:30:37;6.95;;;2.47;;
18048;SDS011;9149;47.002;8.604;2022-09-24T04:33:05;2.85;;;2.40;;
18048;SDS011;9149;47.002;8.604;2022-09-24T04:35:34;4.07;;;2.70;;
18048;SDS011;9149;47.002;8.604;2022-09-24T04:38:03;3.30;;;2.70;;
18048;SDS011;9149;47.002;8.604;2022-09-24T04:40:31;4.38;;;2.70;;
18048;SDS011;9149;47.002;8.604;2022-09-24T04:42:59;4.38;;;2.33;;
18048;SDS011;9149;47.002;8.604;2022-09-24T04:45:27;2.85;;;2.17;;
18048;SDS011;9149;47.002;8.604;2022-09-24T04:47:55;5.10;;;2.78;;
18048;SDS011;9149;47.002;8.604;2022-09-24T04:50:23;3.97;;;2.33;;
18048;SDS011;9149;47.002;8.604;2022-09-24T04:52:51;6.13;;;2.50;;
18048;SDS011;9149;47.002;8.604;2022-09-24T04:55:21;12.52;;;2.65;;
18048;SDS011;9149;47.002;8.604;2022-09-24T04:57:49;6.45;;;2.97;;
18048;SDS011;9149;47.002;8.604;2022-09-24T05:00:19;6.50;;;2.67;;
18048;SDS011;9149;47.002;8.604;2022-09-24T05:02:47;5.63;;;2.92;;
18048;SDS011;9149;47.002;8.604;2022-09-24T05:05:14;3.33;;;2.47;;
18048;SDS011;9149;47.002;8.604;2022-09-24T05:07:42;4.00;;;2.83;;
18048;SDS011;9149;47.002;8.604;2022-09-24T05:10:10;6.80;;;2.80;;
18048;SDS011;9149;47.002;8.604;2022-09-24T05:12:39;3.65;;;2.40;;
18048;SDS011;9149;47.002;8.604;2022-09-24T05:15:08;3.72;;;2.40;;
18048;SDS011;9149;47.002;8.604;2022-09-24T05:17:36;3.63;;;2.25;;
18048;SDS011;9149;47.002;8.604;2022-09-24T05:20:04;3.03;;;2.25;;
18048;SDS011;9149;47.002;8.604;2022-09-24T05:22:32;4.18;;;2.60;;
18048;SDS011;9149;47.002;8.604;2022-09-24T05:25:02;7.18;;;3.28;;
18048;SDS011;9149;47.002;8.604;2022-09-24T05:27:29;4.32;;;2.65;;
18048;SDS011;9149;47.002;8.604;2022-09-24T05:29:57;4.60;;;2.80;;
18048;SDS011;9149;47.002;8.604;2022-09-24T05:32:26;7.20;;;2.55;;
18048;SDS011;9149;47.002;8.604;2022-09-24T05:34:53;5.00;;;3.45;;
18048;SDS011;9149;47.002;8.604;2022-09-24T05:37:21;3.38;;;2.50;;
18048;SDS011;9149;47.002;8.604;2022-09-24T05:39:49;4.68;;;2.65;;
18048;SDS011;9149;47.002;8.604;2022-09-24T05:42:17;3.30;;;2.38;;
18048;SDS011;9149;47.002;8.604;2022-09-24T05:44:44;5.47;;;2.80;;
18048;SDS011;9149;47.002;8.604;2022-09-24T05:47:19;5.05;;;2.63;;
18048;SDS011;9149;47.002;8.604;2022-09-24T05:49:46;6.07;;;2.88;;
18048;SDS011;9149;47.002;8.604;2022-09-24T05:52:14;4.68;;;2.50;;
18048;SDS011;9149;47.002;8.604;2022-09-24T05:54:42;6.55;;;2.78;;
18048;SDS011;9149;47.002;8.604;2022-09-24T05:57:09;4.63;;;2.38;;
18048;SDS011;9149;47.002;8.604;2022-09-24T05:59:41;5.38;;;2.75;;
18048;SDS011;9149;47.002;8.604;2022-09-24T06:02:09;3.53;;;2.35;;
18048;SDS011;9149;47.002;8.604;2022-09-24T06:04:38;3.72;;;2.65;;
18048;SDS011;9149;47.002;8.604;2022-09-24T06:07:06;4.97;;;2.60;;
18048;SDS011;9149;47.002;8.604;2022-09-24T06:09:34;3.95;;;2.47;;
18048;SDS011;9149;47.002;8.604;2022-09-24T06:12:02;5.53;;;2.67;;
18048;SDS011;9149;47.002;8.604;2022-09-24T06:14:29;5.47;;;3.17;;
18048;SDS011;9149;47.002;8.604;2022-09-24T06:16:57;3.60;;;2.70;;
18048;SDS011;9149;47.002;8.604;2022-09-24T06:19:25;6.50;;;3.42;;
18048;SDS011;9149;47.002;8.604;2022-09-24T06:21:54;7.32;;;3.72;;
18048;SDS011;9149;47.002;8.604;2022-09-24T06:24:22;4.82;;;3.00;;
18048;SDS011;9149;47.002;8.604;2022-09-24T06:26:50;4.72;;;3.00;;
18048;SDS011;9149;47.002;8.604;2022-09-24T06:29:35;7.05;;;3.20;;
18048;SDS011;9149;47.002;8.604;2022-09-24T06:32:03;5.50;;;3.00;;
18048;SDS011;9149;47.002;8.604;2022-09-24T06:34:31;5.22;;;2.88;;
18048;SDS011;9149;47.002;8.604;2022-09-24T06:37:00;10.30;;;3.50;;
18048;SDS011;9149;47.002;8.604;2022-09-24T06:39:28;5.65;;;2.97;;
18048;SDS011;9149;47.002;8.604;2022-09-24T06:41:55;4.85;;;2.83;;
18048;SDS011;9149;47.002;8.604;2022-09-24T06:44:28;6.13;;;3.08;;
18048;SDS011;9149;47.002;8.604;2022-09-24T06:46:56;5.43;;;3.05;;
18048;SDS011;9149;47.002;8.604;2022-09-24T06:49:24;5.22;;;3.10;;
18048;SDS011;9149;47.002;8.604;2022-09-24T06:52:00;4.32;;;3.00;;
18048;SDS011;9149;47.002;8.604;2022-09-24T06:54:28;9.93;;;3.20;;
18048;SDS011;9149;47.002;8.604;2022-09-24T06:56:55;4.28;;;2.85;;
18048;SDS011;9149;47.002;8.604;2022-09-24T06:59:23;7.32;;;3.25;;
18048;SDS011;9149;47.002;8.604;2022-09-24T07:01:51;6.82;;;3.28;;
18048;SDS011;9149;47.002;8.604;2022-09-24T07:04:19;5.18;;;2.83;;
18048;SDS011;9149;47.002;8.604;2022-09-24T07:06:47;4.82;;;2.75;;
18048;SDS011;9149;47.002;8.604;2022-09-24T07:09:26;5.45;;;3.40;;
18048;SDS011;9149;47.002;8.604;2022-09-24T07:11:53;6.68;;;2.70;;
18048;SDS011;9149;47.002;8.604;2022-09-24T07:14:22;3.85;;;2.50;;
18048;SDS011;9149;47.002;8.604;2022-09-24T07:16:50;4.53;;;2.90;;
18048;SDS011;9149;47.002;8.604;2022-09-24T07:19:19;5.00;;;2.60;;
18048;SDS011;9149;47.002;8.604;2022-09-24T07:21:47;5.00;;;2.53;;
18048;SDS011;9149;47.002;8.604;2022-09-24T07:24:14;5.07;;;3.08;;
18048;SDS011;9149;47.002;8.604;2022-09-24T07:26:43;3.85;;;2.42;;
18048;SDS011;9149;47.002;8.604;2022-09-24T07:29:12;3.13;;;2.13;;
18048;SDS011;9149;47.002;8.604;2022-09-24T07:31:39;4.43;;;2.22;;
18048;SDS011;9149;47.002;8.604;2022-09-24T07:34:07;5.95;;;2.60;;
18048;SDS011;9149;47.002;8.604;2022-09-24T07:36:35;4.22;;;2.10;;
18048;SDS011;9149;47.002;8.604;2022-09-24T07:39:03;5.15;;;2.58;;
18048;SDS011;9149;47.002;8.604;2022-09-24T07:41:31;3.17;;;2.38;;
18048;SDS011;9149;47.002;8.604;2022-09-24T07:44:06;2.95;;;2.13;;
18048;SDS011;9149;47.002;8.604;2022-09-24T07:46:34;4.03;;;2.25;;
18048;SDS011;9149;47.002;8.604;2022-09-24T07:49:02;3.53;;;2.20;;
18048;SDS011;9149;47.002;8.604;2022-09-24T07:51:30;3.15;;;2.03;;
18048;SDS011;9149;47.002;8.604;2022-09-24T07:53:58;4.07;;;2.30;;
18048;SDS011;9149;47.002;8.604;2022-09-24T07:56:26;3.30;;;2.17;;
18048;SDS011;9149;47.002;8.604;2022-09-24T07:58:54;4.25;;;2.20;;
18048;SDS011;9149;47.002;8.604;2022-09-24T08:01:23;4.18;;;2.40;;
18048;SDS011;9149;47.002;8.604;2022-09-24T08:03:52;6.78;;;2.40;;
18048;SDS011;9149;47.002;8.604;2022-09-24T08:06:20;3.63;;;2.30;;
18048;SDS011;9149;47.002;8.604;2022-09-24T08:08:48;3.75;;;2.38;;
18048;SDS011;9149;47.002;8.604;2022-09-24T08:11:18;10.77;;;3.10;;
18048;SDS011;9149;47.002;8.604;2022-09-24T08:13:47;6.22;;;2.30;;
18048;SDS011;9149;47.002;8.604;2022-09-24T08:16:14;6.03;;;2.92;;
18048;SDS011;9149;47.002;8.604;2022-09-24T08:18:44;3.90;;;2.33;;
18048;SDS011;9149;47.002;8.604;2022-09-24T08:21:11;3.30;;;2.38;;
18048;SDS011;9149;47.002;8.604;2022-09-24T08:23:41;6.43;;;2.83;;
18048;SDS011;9149;47.002;8.604;2022-09-24T08:26:09;5.25;;;2.60;;
18048;SDS011;9149;47.002;8.604;2022-09-24T08:28:37;5.72;;;2.80;;
18048;SDS011;9149;47.002;8.604;2022-09-24T08:31:06;3.53;;;2.50;;
18048;SDS011;9149;47.002;8.604;2022-09-24T08:33:36;3.70;;;2.42;;
18048;SDS011;9149;47.002;8.604;2022-09-24T08:36:05;9.50;;;3.33;;
18048;SDS011;9149;47.002;8.604;2022-09-24T08:38:33;3.55;;;2.60;;
18048;SDS011;9149;47.002;8.604;2022-09-24T08:41:04;4.25;;;2.53;;
18048;SDS011;9149;47.002;8.604;2022-09-24T08:43:36;4.97;;;2.85;;
18048;SDS011;9149;47.002;8.604;2022-09-24T08:46:09;10.38;;;2.88;;
18048;SDS011;9149;47.002;8.604;2022-09-24T08:48:50;4.65;;;2.90;;
18048;SDS011;9149;47.002;8.604;2022-09-24T08:51:20;5.60;;;3.13;;
18048;SDS011;9149;47.002;8.604;2022-09-24T08:53:49;4.60;;;2.88;;
18048;SDS011;9149;47.002;8.604;2022-09-24T08:56:19;5.47;;;3.00;;
18048;SDS011;9149;47.002;8.604;2022-09-24T08:58:49;4.40;;;2.75;;
18048;SDS011;9149;47.002;8.604;2022-09-24T09:01:21;7.30;;;2.90;;
18048;SDS011;9149;47.002;8.604;2022-09-24T09:03:52;3.58;;;2.42;;
18048;SDS011;9149;47.002;8.604;2022-09-24T09:06:28;3.45;;;2.08;;
18048;SDS011;9149;47.002;8.604;2022-09-24T09:09:02;4.50;;;2.67;;
18048;SDS011;9149;47.002;8.604;2022-09-24T09:11:33;3.45;;;2.38;;
18048;SDS011;9149;47.002;8.604;2022-09-24T09:14:02;5.40;;;2.60;;
18048;SDS011;9149;47.002;8.604;2022-09-24T09:16:32;4.35;;;2.53;;
18048;SDS011;9149;47.002;8.604;2022-09-24T09:19:03;5.32;;;2.70;;
18048;SDS011;9149;47.002;8.604;2022-09-24T09:21:36;6.47;;;2.53;;
18048;SDS011;9149;47.002;8.604;2022-09-24T09:24:04;8.43;;;2.55;;
18048;SDS011;9149;47.002;8.604;2022-09-24T09:26:36;3.58;;;2.28;;
18048;SDS011;9149;47.002;8.604;2022-09-24T09:29:04;3.13;;;2.08;;
18048;SDS011;9149;47.002;8.604;2022-09-24T09:31:34;3.70;;;2.15;;
18048;SDS011;9149;47.002;8.604;2022-09-24T09:34:12;5.43;;;2.38;;
18048;SDS011;9149;47.002;8.604;2022-09-24T09:36:49;3.08;;;2.15;;
18048;SDS011;9149;47.002;8.604;2022-09-24T09:39:39;3.13;;;2.30;;
18048;SDS011;9149;47.002;8.604;2022-09-24T09:42:23;3.72;;;2.00;;
18048;SDS011;9149;47.002;8.604;2022-09-24T09:44:53;2.20;;;1.90;;
18048;SDS011;9149;47.002;8.604;2022-09-24T09:47:22;3.67;;;2.28;;
18048;SDS011;9149;47.002;8.604;2022-09-24T09:49:52;3.22;;;2.20;;
18048;SDS011;9149;47.002;8.604;2022-09-24T09:52:25;2.85;;;1.98;;
18048;SDS011;9149;47.002;8.604;2022-09-24T09:54:54;3.15;;;2.20;;
18048;SDS011;9149;47.002;8.604;2022-09-24T09:57:22;5.15;;;2.28;;
18048;SDS011;9149;47.002;8.604;2022-09-24T09:59:51;3.05;;;2.13;;
18048;SDS011;9149;47.002;8.604;2022-09-24T10:02:21;3.47;;;2.08;;
18048;SDS011;9149;47.002;8.604;2022-09-24T10:04:51;3.15;;;2.30;;
18048;SDS011;9149;47.002;8.604;2022-09-24T10:07:20;4.28;;;2.40;;
18048;SDS011;9149;47.002;8.604;2022-09-24T10:09:58;5.25;;;2.33;;
18048;SDS011;9149;47.002;8.604;2022-09-24T10:12:27;4.03;;;2.60;;
18048;SDS011;9149;47.002;8.604;2022-09-24T10:14:57;3.10;;;2.10;;
18048;SDS011;9149;47.002;8.604;2022-09-24T10:17:26;3.50;;;2.03;;
18048;SDS011;9149;47.002;8.604;2022-09-24T10:19:55;2.90;;;2.10;;
18048;SDS011;9149;47.002;8.604;2022-09-24T10:22:23;3.20;;;2.05;;
18048;SDS011;9149;47.002;8.604;2022-09-24T10:24:52;3.85;;;2.17;;
18048;SDS011;9149;47.002;8.604;2022-09-24T10:27:25;3.90;;;2.22;;
18048;SDS011;9149;47.002;8.604;2022-09-24T10:29:54;3.97;;;2.13;;
18048;SDS011;9149;47.002;8.604;2022-09-24T10:32:31;3.13;;;1.83;;
18048;SDS011;9149;47.002;8.604;2022-09-24T10:35:00;2.35;;;1.90;;
18048;SDS011;9149;47.002;8.604;2022-09-24T10:37:28;3.00;;;1.98;;
18048;SDS011;9149;47.002;8.604;2022-09-24T10:39:56;5.30;;;2.20;;
18048;SDS011;9149;47.002;8.604;2022-09-24T10:42:25;3.60;;;2.10;;
18048;SDS011;9149;47.002;8.604;2022-09-24T10:44:54;3.50;;;2.15;;
18048;SDS011;9149;47.002;8.604;2022-09-24T10:47:24;6.38;;;2.55;;
18048;SDS011;9149;47.002;8.604;2022-09-24T10:49:56;2.08;;;1.88;;
18048;SDS011;9149;47.002;8.604;2022-09-24T10:52:31;4.18;;;2.80;;
18048;SDS011;9149;47.002;8.604;2022-09-24T10:55:05;4.70;;;2.83;;
18048;SDS011;9149;47.002;8.604;2022-09-24T10:57:39;6.50;;;2.50;;
18048;SDS011;9149;47.002;8.604;2022-09-24T11:00:13;5.38;;;3.25;;
18048;SDS011;9149;47.002;8.604;2022-09-24T11:02:47;6.95;;;2.80;;
18048;SDS011;9149;47.002;8.604;2022-09-24T11:05:19;5.38;;;3.10;;
18048;SDS011;9149;47.002;8.604;2022-09-24T11:07:51;6.43;;;2.40;;
18048;SDS011;9149;47.002;8.604;2022-09-24T11:10:22;4.57;;;3.03;;
18048;SDS011;9149;47.002;8.604;2022-09-24T11:13:00;4.88;;;2.30;;
18048;SDS011;9149;47.002;8.604;2022-09-24T11:15:33;5.18;;;3.33;;
18048;SDS011;9149;47.002;8.604;2022-09-24T11:18:12;5.97;;;2.83;;
18048;SDS011;9149;47.002;8.604;2022-09-24T11:21:04;4.47;;;2.35;;
18048;SDS011;9149;47.002;8.604;2022-09-24T11:23:39;2.90;;;2.20;;
18048;SDS011;9149;47.002;8.604;2022-09-24T11:26:12;4.10;;;2.47;;
18048;SDS011;9149;47.002;8.604;2022-09-24T11:28:53;3.20;;;2.08;;
18048;SDS011;9149;47.002;8.604;2022-09-24T11:31:25;4.88;;;2.92;;
18048;SDS011;9149;47.002;8.604;2022-09-24T11:34:02;7.15;;;4.03;;
18048;SDS011;9149;47.002;8.604;2022-09-24T11:36:37;5.35;;;3.15;;
18048;SDS011;9149;47.002;8.604;2022-09-24T11:39:12;4.50;;;2.42;;
18048;SDS011;9149;47.002;8.604;2022-09-24T11:41:45;5.50;;;2.55;;
18048;SDS011;9149;47.002;8.604;2022-09-24T11:44:21;5.57;;;3.15;;
18048;SDS011;9149;47.002;8.604;2022-09-24T11:46:56;3.67;;;2.45;;
18048;SDS011;9149;47.002;8.604;2022-09-24T11:49:31;7.28;;;2.92;;
18048;SDS011;9149;47.002;8.604;2022-09-24T11:52:02;6.57;;;2.90;;
18048;SDS011;9149;47.002;8.604;2022-09-24T11:54:32;6.18;;;2.72;;
18048;SDS011;9149;47.002;8.604;2022-09-24T11:57:02;4.55;;;2.75;;
18048;SDS011;9149;47.002;8.604;2022-09-24T11:59:34;4.45;;;2.70;;
18048;SDS011;9149;47.002;8.604;2022-09-24T12:02:09;3.97;;;2.47;;
18048;SDS011;9149;47.002;8.604;2022-09-24T12:04:42;5.45;;;3.17;;
18048;SDS011;9149;47.002;8.604;2022-09-24T12:07:12;3.70;;;2.35;;
18048;SDS011;9149;47.002;8.604;2022-09-24T12:09:42;5.75;;;2.97;;
18048;SDS011;9149;47.002;8.604;2022-09-24T12:12:12;9.00;;;2.80;;
18048;SDS011;9149;47.002;8.604;2022-09-24T12:14:44;7.82;;;3.08;;
18048;SDS011;9149;47.002;8.604;2022-09-24T12:17:16;3.92;;;2.67;;
18048;SDS011;9149;47.002;8.604;2022-09-24T12:19:47;5.28;;;2.63;;
18048;SDS011;9149;47.002;8.604;2022-09-24T12:22:16;6.32;;;3.15;;
18048;SDS011;9149;47.002;8.604;2022-09-24T12:24:45;6.43;;;3.42;;
18048;SDS011;9149;47.002;8.604;2022-09-24T12:27:15;7.45;;;4.70;;
18048;SDS011;9149;47.002;8.604;2022-09-24T12:29:45;10.93;;;5.47;;
18048;SDS011;9149;47.002;8.604;2022-09-24T12:32:25;7.90;;;4.07;;
18048;SDS011;9149;47.002;8.604;2022-09-24T12:35:06;5.78;;;3.35;;
18048;SDS011;9149;47.002;8.604;2022-09-24T12:37:38;7.88;;;3.53;;
18048;SDS011;9149;47.002;8.604;2022-09-24T12:40:12;5.43;;;3.47;;
18048;SDS011;9149;47.002;8.604;2022-09-24T12:42:44;6.50;;;3.78;;
18048;SDS011;9149;47.002;8.604;2022-09-24T12:45:18;7.30;;;4.60;;
18048;SDS011;9149;47.002;8.604;2022-09-24T12:47:48;8.60;;;4.57;;
18048;SDS011;9149;47.002;8.604;2022-09-24T12:50:18;6.95;;;4.05;;
18048;SDS011;9149;47.002;8.604;2022-09-24T12:52:47;6.15;;;3.53;;
18048;SDS011;9149;47.002;8.604;2022-09-24T12:55:17;4.00;;;2.75;;
18048;SDS011;9149;47.002;8.604;2022-09-24T12:57:48;6.38;;;2.63;;
18048;SDS011;9149;47.002;8.604;2022-09-24T13:02:56;5.68;;;2.00;;
18048;SDS011;9149;47.002;8.604;2022-09-24T13:05:25;7.50;;;3.05;;
18048;SDS011;9149;47.002;8.604;2022-09-24T13:07:55;4.88;;;2.95;;
18048;SDS011;9149;47.002;8.604;2022-09-24T13:10:25;4.97;;;3.13;;
18048;SDS011;9149;47.002;8.604;2022-09-24T13:12:53;4.28;;;2.60;;
18048;SDS011;9149;47.002;8.604;2022-09-24T13:15:24;3.88;;;2.30;;
18048;SDS011;9149;47.002;8.604;2022-09-24T13:18:04;6.13;;;2.47;;
18048;SDS011;9149;47.002;8.604;2022-09-24T13:20:32;4.25;;;1.98;;
18048;SDS011;9149;47.002;8.604;2022-09-24T13:25:40;3.10;;;2.30;;
18048;SDS011;9149;47.002;8.604;2022-09-24T13:30:46;2.90;;;2.17;;
18048;SDS011;9149;47.002;8.604;2022-09-24T13:33:20;3.78;;;2.47;;
18048;SDS011;9149;47.002;8.604;2022-09-24T13:35:58;3.97;;;2.60;;
18048;SDS011;9149;47.002;8.604;2022-09-24T13:38:29;3.90;;;2.60;;
18048;SDS011;9149;47.002;8.604;2022-09-24T13:41:00;4.00;;;2.53;;
18048;SDS011;9149;47.002;8.604;2022-09-24T13:43:32;3.42;;;2.35;;
18048;SDS011;9149;47.002;8.604;2022-09-24T13:46:02;4.68;;;2.85;;
18048;SDS011;9149;47.002;8.604;2022-09-24T13:48:34;3.70;;;2.72;;
18048;SDS011;9149;47.002;8.604;2022-09-24T13:51:03;4.72;;;2.85;;
18048;SDS011;9149;47.002;8.604;2022-09-24T13:53:32;5.40;;;2.70;;
18048;SDS011;9149;47.002;8.604;2022-09-24T13:56:03;9.57;;;2.78;;
18048;SDS011;9149;47.002;8.604;2022-09-24T13:58:32;4.45;;;2.88;;
18048;SDS011;9149;47.002;8.604;2022-09-24T14:01:00;5.40;;;3.05;;
18048;SDS011;9149;47.002;8.604;2022-09-24T14:03:37;4.50;;;2.75;;
18048;SDS011;9149;47.002;8.604;2022-09-24T14:06:08;7.00;;;2.78;;
18048;SDS011;9149;47.002;8.604;2022-09-24T14:08:38;4.65;;;2.72;;
18048;SDS011;9149;47.002;8.604;2022-09-24T14:11:12;4.80;;;2.90;;
18048;SDS011;9149;47.002;8.604;2022-09-24T14:13:40;3.47;;;2.40;;
18048;SDS011;9149;47.002;8.604;2022-09-24T14:16:13;3.35;;;2.15;;
18048;SDS011;9149;47.002;8.604;2022-09-24T14:18:43;3.35;;;2.00;;
18048;SDS011;9149;47.002;8.604;2022-09-24T14:21:12;5.85;;;2.22;;
18048;SDS011;9149;47.002;8.604;2022-09-24T14:23:41;3.25;;;2.30;;
18048;SDS011;9149;47.002;8.604;2022-09-24T14:26:13;4.25;;;1.90;;
18048;SDS011;9149;47.002;8.604;2022-09-24T14:28:43;2.90;;;1.83;;
18048;SDS011;9149;47.002;8.604;2022-09-24T14:31:10;2.55;;;2.00;;
18048;SDS011;9149;47.002;8.604;2022-09-24T14:33:38;2.45;;;1.90;;
18048;SDS011;9149;47.002;8.604;2022-09-24T14:36:09;2.80;;;2.00;;
18048;SDS011;9149;47.002;8.604;2022-09-24T14:38:44;2.13;;;1.80;;
18048;SDS011;9149;47.002;8.604;2022-09-24T14:41:19;2.67;;;1.98;;
18048;SDS011;9149;47.002;8.604;2022-09-24T14:43:48;2.35;;;1.90;;
18048;SDS011;9149;47.002;8.604;2022-09-24T14:46:17;3.10;;;1.92;;
18048;SDS011;9149;47.002;8.604;2022-09-24T14:48:49;6.97;;;2.33;;
18048;SDS011;9149;47.002;8.604;2022-09-24T14:51:37;6.80;;;2.13;;
18048;SDS011;9149;47.002;8.604;2022-09-24T14:54:17;3.10;;;2.10;;
18048;SDS011;9149;47.002;8.604;2022-09-24T14:56:46;3.40;;;2.13;;
18048;SDS011;9149;47.002;8.604;2022-09-24T14:59:14;3.42;;;2.10;;
18048;SDS011;9149;47.002;8.604;2022-09-24T15:01:42;3.45;;;2.22;;
18048;SDS011;9149;47.002;8.604;2022-09-24T15:04:14;2.17;;;1.55;;
18048;SDS011;9149;47.002;8.604;2022-09-24T15:06:45;4.35;;;2.28;;
18048;SDS011;9149;47.002;8.604;2022-09-24T15:09:16;2.85;;;2.17;;
18048;SDS011;9149;47.002;8.604;2022-09-24T15:11:47;3.05;;;2.00;;
18048;SDS011;9149;47.002;8.604;2022-09-24T15:14:18;3.55;;;2.33;;
18048;SDS011;9149;47.002;8.604;2022-09-24T15:16:50;3.80;;;2.38;;
18048;SDS011;9149;47.002;8.604;2022-09-24T15:19:19;3.10;;;2.10;;
18048;SDS011;9149;47.002;8.604;2022-09-24T15:21:49;5.22;;;2.22;;
18048;SDS011;9149;47.002;8.604;2022-09-24T15:24:17;4.95;;;2.60;;
18048;SDS011;9149;47.002;8.604;2022-09-24T15:26:47;3.50;;;2.33;;
18048;SDS011;9149;47.002;8.604;2022-09-24T15:29:16;3.85;;;2.25;;
18048;SDS011;9149;47.002;8.604;2022-09-24T15:31:45;3.45;;;2.05;;